createdAt,value
2022-09-22T00:00:31.155Z,14.43
2022-09-22T00:03:01.350Z,14.47
2022-09-22T00:05:29.950Z,14.59
2022-09-22T00:07:58.745Z,14.69
2022-09-22T00:10:29.196Z,14.62
2022-09-22T00:13:00.088Z,14.65
2022-09-22T00:15:30.487Z,14.56
2022-09-22T00:18:00.407Z,14.53
2022-09-22T00:20:29.341Z,14.54
2022-09-22T00:22:58.101Z,14.49
2022-09-22T00:25:34.175Z,14.53
2022-09-22T00:28:07.646Z,14.48
2022-09-22T00:30:43.202Z,14.40
2022-09-22T00:33:13.030Z,14.41
2022-09-22T00:35:42.298Z,14.39
2022-09-22T00:38:16.037Z,14.31
2022-09-22T00:40:45.047Z,14.28
2022-09-22T00:43:22.604Z,14.26
2022-09-22T00:45:56.337Z,14.26
2022-09-22T00:48:31.009Z,14.11
2022-09-22T00:51:04.529Z,14.03
2022-09-22T00:53:33.743Z,14.11
2022-09-22T00:56:12.639Z,14.21
2022-09-22T00:58:47.171Z,14.13
2022-09-22T01:01:19.374Z,14.01
2022-09-22T01:03:49.172Z,13.97
2022-09-22T01:06:24.889Z,14.09
2022-09-22T01:08:58.420Z,14.11
2022-09-22T01:11:30.056Z,14.04
2022-09-22T01:14:13.230Z,14.00
2022-09-22T01:16:55.073Z,13.80
2022-09-22T01:20:06.907Z,13.57
2022-09-22T01:23:06.993Z,13.45
2022-09-22T01:26:22.518Z,13.33
2022-09-22T01:29:24.427Z,13.35
2022-09-22T01:32:02.756Z,13.30
2022-09-22T01:34:40.058Z,13.53
2022-09-22T01:37:16.575Z,13.44
2022-09-22T01:39:52.032Z,13.55
2022-09-22T01:42:33.928Z,13.32
2022-09-22T01:45:10.740Z,13.44
2022-09-22T01:47:51.387Z,13.53
2022-09-22T01:50:25.241Z,13.51
2022-09-22T01:52:57.298Z,13.46
2022-09-22T01:55:31.410Z,13.57
2022-09-22T01:58:05.262Z,13.62
2022-09-22T02:00:36.904Z,13.62
2022-09-22T02:03:13.008Z,13.52
2022-09-22T02:05:49.746Z,13.51
2022-09-22T02:08:28.017Z,13.48
2022-09-22T02:10:59.466Z,13.45
2022-09-22T02:13:28.687Z,13.44
2022-09-22T02:16:04.111Z,13.22
2022-09-22T02:18:44.975Z,13.36
2022-09-22T02:21:15.256Z,13.32
2022-09-22T02:23:45.627Z,13.23
2022-09-22T02:26:23.831Z,13.30
2022-09-22T02:28:59.962Z,13.30
2022-09-22T02:31:32.516Z,13.29
2022-09-22T02:34:05.391Z,13.29
2022-09-22T02:36:57.645Z,13.25
2022-09-22T02:39:35.759Z,13.23
2022-09-22T02:42:27.811Z,13.17
2022-09-22T02:45:08.474Z,13.09
2022-09-22T02:47:44.604Z,13.06
2022-09-22T02:50:18.389Z,13.07
2022-09-22T02:52:54.286Z,13.06
2022-09-22T02:55:27.033Z,13.08
2022-09-22T02:57:55.715Z,13.09
2022-09-22T03:00:25.667Z,13.02
2022-09-22T03:02:54.777Z,13.05
2022-09-22T03:05:25.145Z,12.86
2022-09-22T03:07:53.993Z,12.99
2022-09-22T03:10:24.152Z,12.89
2022-09-22T03:13:14.853Z,12.85
2022-09-22T03:15:42.473Z,12.86
2022-09-22T03:18:12.978Z,12.77
2022-09-22T03:20:44.302Z,13.03
2022-09-22T03:23:20.957Z,12.90
2022-09-22T03:25:50.150Z,12.99
2022-09-22T03:28:20.902Z,12.89
2022-09-22T03:30:51.881Z,12.95
2022-09-22T03:33:21.020Z,12.91
2022-09-22T03:35:52.232Z,12.91
2022-09-22T03:38:23.987Z,12.87
2022-09-22T03:40:54.343Z,13.04
2022-09-22T03:43:23.123Z,13.05
2022-09-22T03:45:58.637Z,13.06
2022-09-22T03:48:28.712Z,12.98
2022-09-22T03:50:59.801Z,12.98
2022-09-22T03:53:28.857Z,12.99
2022-09-22T03:56:08.021Z,12.97
2022-09-22T03:58:39.200Z,12.81
2022-09-22T04:01:08.989Z,12.88
2022-09-22T04:03:38.925Z,12.87
2022-09-22T04:06:13.206Z,12.91
2022-09-22T04:08:41.794Z,12.80
2022-09-22T04:11:10.515Z,12.89
2022-09-22T04:13:43.992Z,12.90
2022-09-22T04:16:15.174Z,12.85
2022-09-22T04:18:44.082Z,12.75
2022-09-22T04:21:14.980Z,12.86
2022-09-22T04:23:44.616Z,12.86
2022-09-22T04:26:13.684Z,12.84
2022-09-22T04:28:42.153Z,12.80
2022-09-22T04:31:12.006Z,12.79
2022-09-22T04:33:41.823Z,12.58
2022-09-22T04:36:10.629Z,12.77
2022-09-22T04:38:41.500Z,12.77
2022-09-22T04:41:10.041Z,12.70
2022-09-22T04:43:43.308Z,12.71
2022-09-22T04:46:15.491Z,12.67
2022-09-22T04:48:46.432Z,12.68
2022-09-22T04:51:15.652Z,12.64
2022-09-22T04:53:48.187Z,12.59
2022-09-22T04:56:18.793Z,12.52
2022-09-22T04:58:49.205Z,12.58
2022-09-22T05:01:19.934Z,12.36
2022-09-22T05:03:49.501Z,12.58
2022-09-22T05:06:19.839Z,12.40
2022-09-22T05:08:59.656Z,12.48
2022-09-22T05:11:30.285Z,12.52
2022-09-22T05:13:59.982Z,12.38
2022-09-22T05:16:29.557Z,12.49
2022-09-22T05:18:59.327Z,12.48
2022-09-22T05:21:32.767Z,12.36
2022-09-22T05:24:03.749Z,12.45
2022-09-22T05:26:34.780Z,12.42
2022-09-22T05:29:03.564Z,12.36
2022-09-22T05:31:32.319Z,12.39
2022-09-22T05:34:02.712Z,12.39
2022-09-22T05:36:32.281Z,12.36
2022-09-22T05:39:03.236Z,12.26
2022-09-22T05:41:39.083Z,12.43
2022-09-22T05:44:10.372Z,12.49
2022-09-22T05:46:39.206Z,12.48
2022-09-22T05:49:08.332Z,12.52
2022-09-22T05:51:38.184Z,12.53
2022-09-22T05:54:11.809Z,12.54
2022-09-22T05:56:43.237Z,12.57
2022-09-22T05:59:20.890Z,12.51
2022-09-22T06:04:32.767Z,12.68
2022-09-22T06:07:06.301Z,12.66
2022-09-22T06:09:38.215Z,12.66
2022-09-22T06:12:08.879Z,12.70
2022-09-22T06:14:40.246Z,12.78
2022-09-22T06:17:12.100Z,12.86
2022-09-22T06:19:43.294Z,12.92
2022-09-22T06:22:12.905Z,12.98
2022-09-22T06:24:43.304Z,13.03
2022-09-22T06:27:12.533Z,13.08
2022-09-22T06:29:43.369Z,13.40
2022-09-22T06:32:14.728Z,13.50
2022-09-22T06:34:44.714Z,13.38
2022-09-22T06:37:13.236Z,13.61
2022-09-22T06:39:44.873Z,13.80
2022-09-22T06:42:15.493Z,13.91
2022-09-22T06:44:44.560Z,14.00
2022-09-22T06:47:13.309Z,14.26
2022-09-22T06:49:42.847Z,14.42
2022-09-22T06:52:15.007Z,14.36
2022-09-22T06:54:53.128Z,14.59
2022-09-22T06:57:28.381Z,14.48
2022-09-22T06:59:57.974Z,14.72
2022-09-22T07:02:29.153Z,15.06
2022-09-22T07:04:59.155Z,15.13
2022-09-22T07:07:29.144Z,15.31
2022-09-22T07:10:00.932Z,15.23
2022-09-22T07:12:30.509Z,15.09
2022-09-22T07:14:59.532Z,15.43
2022-09-22T07:17:32.711Z,15.62
2022-09-22T07:20:01.640Z,16.15
2022-09-22T07:22:31.217Z,16.03
2022-09-22T07:25:02.257Z,16.48
2022-09-22T07:27:33.696Z,16.67
2022-09-22T07:30:10.276Z,16.77
2022-09-22T07:32:39.045Z,16.60
2022-09-22T07:35:09.324Z,16.33
2022-09-22T07:37:41.006Z,16.72
2022-09-22T07:40:12.268Z,16.70
2022-09-22T07:42:41.627Z,16.86
2022-09-22T07:45:27.058Z,17.76
2022-09-22T07:48:28.542Z,18.40
2022-09-22T07:51:01.292Z,18.75
2022-09-22T07:53:31.515Z,18.71
2022-09-22T07:56:07.749Z,17.98
2022-09-22T07:58:38.333Z,18.02
2022-09-22T08:01:11.046Z,18.80
2022-09-22T08:03:41.807Z,18.36
2022-09-22T08:06:12.483Z,19.00
2022-09-22T08:08:43.995Z,18.53
2022-09-22T08:11:18.597Z,19.38
2022-09-22T08:13:56.109Z,19.03
2022-09-22T08:16:30.660Z,18.68
2022-09-22T08:19:12.214Z,18.42
2022-09-22T08:21:48.377Z,19.27
2022-09-22T08:24:24.823Z,18.91
2022-09-22T08:26:56.443Z,19.28
2022-09-22T08:29:25.709Z,19.64
2022-09-22T08:31:56.786Z,18.80
2022-09-22T08:34:32.718Z,19.81
2022-09-22T08:37:03.360Z,19.70
2022-09-22T08:39:33.311Z,19.71
2022-09-22T08:42:12.344Z,19.68
2022-09-22T08:44:53.268Z,19.71
2022-09-22T08:47:41.209Z,19.93
2022-09-22T08:50:44.686Z,20.03
2022-09-22T08:53:26.342Z,20.61
2022-09-22T08:56:07.239Z,20.32
2022-09-22T08:58:50.265Z,20.16
2022-09-22T09:01:51.609Z,20.80
2022-09-22T09:04:58.184Z,20.66
2022-09-22T09:07:35.569Z,20.81
2022-09-22T09:10:23.560Z,20.77
2022-09-22T09:13:17.043Z,20.26
2022-09-22T09:16:06.747Z,20.78
2022-09-22T09:18:42.584Z,20.81
2022-09-22T09:21:18.632Z,21.46
2022-09-22T09:26:42.541Z,21.63
2022-09-22T09:29:22.439Z,21.70
2022-09-22T09:31:57.241Z,21.09
2022-09-22T09:34:30.198Z,20.94
2022-09-22T09:37:12.362Z,21.59
2022-09-22T09:39:45.783Z,21.81
2022-09-22T09:42:25.028Z,21.98
2022-09-22T09:45:02.697Z,22.13
2022-09-22T09:48:01.944Z,22.60
2022-09-22T09:50:32.539Z,22.27
2022-09-22T09:53:02.500Z,22.77
2022-09-22T09:55:36.081Z,22.92
2022-09-22T09:58:36.497Z,22.80
2022-09-22T10:01:07.649Z,23.07
2022-09-22T10:03:54.793Z,22.89
2022-09-22T10:06:29.299Z,23.36
2022-09-22T10:09:03.477Z,23.47
2022-09-22T10:11:38.715Z,23.13
2022-09-22T10:14:21.340Z,23.55
2022-09-22T10:16:53.534Z,23.35
2022-09-22T10:19:32.242Z,23.56
2022-09-22T10:22:28.874Z,23.31
2022-09-22T10:25:06.484Z,23.44
2022-09-22T10:28:02.747Z,23.70
2022-09-22T10:30:40.838Z,22.53
2022-09-22T10:33:20.883Z,23.61
2022-09-22T10:36:11.035Z,23.59
2022-09-22T10:39:09.743Z,23.58
2022-09-22T10:42:25.579Z,23.67
2022-09-22T10:45:49.644Z,23.45
2022-09-22T10:48:58.438Z,23.67
2022-09-22T10:52:30.155Z,24.11
2022-09-22T10:56:00.273Z,23.66
2022-09-22T10:59:28.895Z,23.53
2022-09-22T11:03:12.597Z,24.10
2022-09-22T11:07:06.677Z,24.28
2022-09-22T11:13:53.213Z,24.43
2022-09-22T11:17:18.107Z,24.47
2022-09-22T11:20:45.980Z,23.92
2022-09-22T11:24:11.146Z,23.87
2022-09-22T11:27:21.393Z,24.26
2022-09-22T11:30:59.106Z,23.63
2022-09-22T11:35:28.858Z,24.38
2022-09-22T11:38:23.680Z,24.98
2022-09-22T11:45:39.175Z,24.92
2022-09-22T11:52:26.110Z,23.97
2022-09-22T11:55:45.485Z,24.79
2022-09-22T11:58:51.201Z,24.54
2022-09-22T12:01:42.033Z,24.06
2022-09-22T12:04:29.110Z,25.08
2022-09-22T12:07:02.225Z,24.13
2022-09-22T12:09:41.271Z,25.01
2022-09-22T12:12:19.607Z,25.11
2022-09-22T12:15:03.376Z,25.13
2022-09-22T12:17:49.012Z,25.79
2022-09-22T12:20:39.301Z,25.74
2022-09-22T12:23:38.903Z,26.19
2022-09-22T12:26:12.504Z,26.14
2022-09-22T12:28:45.745Z,26.61
2022-09-22T12:31:17.457Z,26.28
2022-09-22T12:33:55.592Z,26.04
2022-09-22T12:36:34.198Z,26.74
2022-09-22T12:39:18.338Z,26.55
2022-09-22T12:41:50.452Z,26.21
2022-09-22T12:44:26.227Z,26.17
2022-09-22T12:47:04.985Z,26.11
2022-09-22T12:49:50.088Z,26.96
2022-09-22T12:53:05.265Z,26.95
2022-09-22T12:55:39.557Z,26.74
2022-09-22T12:58:42.648Z,27.16
2022-09-22T13:01:49.972Z,26.47
2022-09-22T13:04:22.942Z,25.25
2022-09-22T13:07:02.942Z,26.64
2022-09-22T13:09:34.259Z,26.71
2022-09-22T13:12:38.354Z,26.25
2022-09-22T13:15:24.918Z,27.03
2022-09-22T13:17:54.359Z,26.72
2022-09-22T13:20:33.217Z,27.10
2022-09-22T13:23:14.815Z,26.57
2022-09-22T13:25:44.776Z,27.33
2022-09-22T13:28:21.454Z,27.25
2022-09-22T13:31:06.096Z,27.24
2022-09-22T13:33:38.540Z,27.89
2022-09-22T13:36:11.771Z,26.62
2022-09-22T13:38:46.416Z,27.17
2022-09-22T13:41:21.660Z,27.81
2022-09-22T13:43:55.537Z,26.68
2022-09-22T13:46:43.717Z,27.61
2022-09-22T13:49:20.361Z,26.98
2022-09-22T13:51:56.275Z,27.99
2022-09-22T13:54:32.574Z,27.73
2022-09-22T13:57:04.054Z,27.25
2022-09-22T13:59:42.447Z,28.16
2022-09-22T14:02:16.683Z,27.35
2022-09-22T14:04:54.557Z,27.78
2022-09-22T14:07:26.753Z,28.14
2022-09-22T14:10:01.599Z,28.50
2022-09-22T14:12:31.616Z,28.50
2022-09-22T14:15:34.482Z,28.80
2022-09-22T14:18:04.167Z,27.90
2022-09-22T14:20:34.602Z,26.48
2022-09-22T14:23:03.574Z,28.11
2022-09-22T14:25:36.771Z,27.35
2022-09-22T14:28:06.319Z,27.39
2022-09-22T14:30:38.674Z,27.66
2022-09-22T14:33:08.202Z,27.50
2022-09-22T14:35:40.352Z,28.75
2022-09-22T14:38:16.842Z,28.05
2022-09-22T14:40:58.991Z,27.60
2022-09-22T14:43:42.534Z,28.16
2022-09-22T14:46:34.247Z,28.02
2022-09-22T14:49:41.068Z,28.32
2022-09-22T14:52:28.908Z,27.89
2022-09-22T14:55:04.062Z,29.04
2022-09-22T14:57:34.632Z,28.87
2022-09-22T15:00:22.663Z,28.36
2022-09-22T15:02:55.683Z,29.33
2022-09-22T15:05:32.558Z,28.55
2022-09-22T15:08:07.090Z,28.21
2022-09-22T15:10:37.601Z,28.71
2022-09-22T15:13:31.709Z,29.27
2022-09-22T15:16:04.353Z,28.78
2022-09-22T15:18:35.184Z,28.69
2022-09-22T15:21:12.521Z,28.40
2022-09-22T15:23:48.214Z,27.68
2022-09-22T15:26:24.099Z,27.54
2022-09-22T15:29:01.790Z,27.95
2022-09-22T15:31:32.622Z,27.74
2022-09-22T15:34:03.146Z,27.05
2022-09-22T15:36:33.920Z,27.00
2022-09-22T15:39:10.535Z,27.55
2022-09-22T15:41:39.150Z,27.03
2022-09-22T15:44:11.803Z,26.82
2022-09-22T15:46:41.840Z,27.06
2022-09-22T15:49:21.888Z,27.07
2022-09-22T15:51:55.490Z,26.94
2022-09-22T15:54:26.633Z,26.24
2022-09-22T15:56:59.514Z,26.32
2022-09-22T15:59:35.166Z,25.44
2022-09-22T16:02:09.762Z,25.20
2022-09-22T16:04:39.765Z,25.16
2022-09-22T16:07:13.813Z,24.27
2022-09-22T16:09:43.218Z,25.38
2022-09-22T16:12:15.759Z,24.30
2022-09-22T16:14:47.839Z,24.82
2022-09-22T16:17:19.092Z,24.80
2022-09-22T16:19:50.740Z,24.78
2022-09-22T16:22:20.121Z,24.64
2022-09-22T16:24:48.930Z,24.32
2022-09-22T16:27:17.723Z,24.11
2022-09-22T16:29:48.698Z,24.25
2022-09-22T16:32:18.982Z,23.73
2022-09-22T16:34:48.668Z,23.59
2022-09-22T16:37:17.977Z,23.67
2022-09-22T16:39:48.658Z,23.65
2022-09-22T16:42:22.860Z,23.94
2022-09-22T16:45:03.937Z,23.40
2022-09-22T16:47:32.646Z,22.90
2022-09-22T16:50:01.570Z,22.73
2022-09-22T16:52:32.306Z,23.23
2022-09-22T16:55:08.319Z,23.37
2022-09-22T16:57:37.072Z,22.99
2022-09-22T17:00:13.815Z,23.16
2022-09-22T17:02:46.765Z,22.20
2022-09-22T17:05:15.970Z,22.55
2022-09-22T17:07:47.565Z,22.60
2022-09-22T17:10:16.945Z,22.64
2022-09-22T17:12:46.595Z,22.82
2022-09-22T17:15:18.626Z,22.70
2022-09-22T17:17:49.041Z,22.69
2022-09-22T17:20:17.701Z,22.64
2022-09-22T17:22:47.032Z,22.39
2022-09-22T17:25:18.227Z,21.37
2022-09-22T17:27:50.259Z,22.16
2022-09-22T17:30:20.460Z,22.29
2022-09-22T17:32:53.250Z,22.08
2022-09-22T17:35:23.353Z,21.76
2022-09-22T17:37:53.335Z,21.65
2022-09-22T17:40:22.095Z,21.53
2022-09-22T17:42:51.532Z,21.44
2022-09-22T17:45:22.216Z,21.21
2022-09-22T17:48:08.649Z,21.02
2022-09-22T17:50:54.928Z,21.01
2022-09-22T17:53:42.256Z,20.76
2022-09-22T17:56:13.971Z,20.72
2022-09-22T17:58:42.866Z,20.61
2022-09-22T18:01:13.011Z,20.58
2022-09-22T18:03:45.245Z,20.46
2022-09-22T18:06:15.997Z,20.49
2022-09-22T18:08:45.372Z,20.37
2022-09-22T18:11:14.220Z,20.27
2022-09-22T18:13:46.793Z,20.09
2022-09-22T18:16:37.470Z,20.02
2022-09-22T18:19:13.195Z,20.03
2022-09-22T18:21:47.352Z,19.88
2022-09-22T18:24:20.584Z,19.74
2022-09-22T18:27:02.323Z,19.71
2022-09-22T18:29:36.238Z,19.59
2022-09-22T18:32:13.870Z,19.56
2022-09-22T18:34:48.323Z,19.52
2022-09-22T18:37:23.188Z,19.30
2022-09-22T18:39:53.458Z,19.35
2022-09-22T18:42:31.105Z,19.08
2022-09-22T18:45:01.411Z,19.27
2022-09-22T18:47:43.944Z,19.17
2022-09-22T18:50:17.518Z,19.23
2022-09-22T18:52:49.156Z,19.05
2022-09-22T18:55:32.988Z,19.14
2022-09-22T18:58:05.193Z,19.23
2022-09-22T19:00:41.822Z,19.12
2022-09-22T19:03:23.143Z,19.10
2022-09-22T19:06:19.888Z,19.11
2022-09-22T19:08:57.375Z,18.77
2022-09-22T19:11:36.251Z,18.78
2022-09-22T19:14:06.685Z,18.93
2022-09-22T19:16:53.590Z,18.83
2022-09-22T19:19:46.088Z,18.82
2022-09-22T19:22:20.099Z,18.82
2022-09-22T19:24:54.051Z,18.71
2022-09-22T19:27:29.808Z,18.61
2022-09-22T19:30:07.694Z,18.76
2022-09-22T19:32:42.955Z,18.66
2022-09-22T19:35:16.018Z,18.76
2022-09-22T19:37:58.360Z,18.63
2022-09-22T19:40:53.968Z,18.74
2022-09-22T19:43:30.416Z,18.68
2022-09-22T19:46:04.766Z,18.67
2022-09-22T19:48:34.858Z,18.48
2022-09-22T19:51:10.494Z,18.55
2022-09-22T19:53:39.933Z,18.46
2022-09-22T19:56:12.527Z,18.46
2022-09-22T19:58:46.093Z,18.49
2022-09-22T20:01:35.811Z,18.39
2022-09-22T20:04:12.122Z,18.46
2022-09-22T20:06:48.301Z,18.26
2022-09-22T20:09:32.783Z,18.38
2022-09-22T20:12:12.099Z,18.46
2022-09-22T20:14:46.924Z,18.37
2022-09-22T20:17:21.052Z,18.17
2022-09-22T20:19:57.481Z,18.28
2022-09-22T20:22:37.952Z,18.29
2022-09-22T20:25:12.116Z,18.26
2022-09-22T20:27:42.624Z,18.50
2022-09-22T20:30:16.297Z,18.38
2022-09-22T20:32:46.558Z,18.35
2022-09-22T20:35:21.628Z,18.45
2022-09-22T20:37:58.268Z,18.31
2022-09-22T20:40:27.277Z,18.17
2022-09-22T20:42:56.832Z,18.35
2022-09-22T20:45:26.543Z,17.87
2022-09-22T20:47:56.492Z,17.98
2022-09-22T20:50:26.407Z,17.83
2022-09-22T20:52:57.573Z,17.76
2022-09-22T20:55:27.293Z,17.74
2022-09-22T20:57:56.187Z,17.80
2022-09-22T21:00:27.048Z,17.73
2022-09-22T21:03:00.462Z,17.67
2022-09-22T21:05:29.930Z,17.54
2022-09-22T21:08:13.781Z,17.66
2022-09-22T21:10:43.123Z,17.59
2022-09-22T21:13:13.948Z,17.39
2022-09-22T21:15:43.273Z,17.45
2022-09-22T21:18:12.965Z,17.43
2022-09-22T21:20:42.713Z,17.39
2022-09-22T21:23:14.231Z,17.38
2022-09-22T21:25:57.207Z,17.23
2022-09-22T21:28:26.215Z,17.33
2022-09-22T21:30:59.955Z,17.10
2022-09-22T21:33:30.087Z,17.23
2022-09-22T21:36:05.690Z,17.21
2022-09-22T21:38:40.070Z,17.10
2022-09-22T21:41:16.077Z,17.12
2022-09-22T21:43:46.357Z,17.13
2022-09-22T21:46:19.276Z,16.98
2022-09-22T21:48:50.780Z,17.12
2022-09-22T21:51:22.364Z,17.09
2022-09-22T21:53:55.761Z,17.17
2022-09-22T21:56:26.179Z,17.11
2022-09-22T21:58:56.811Z,17.13
2022-09-22T22:01:28.597Z,17.03
2022-09-22T22:03:59.820Z,16.99
2022-09-22T22:06:33.854Z,16.86
2022-09-22T22:09:07.829Z,16.75
2022-09-22T22:11:39.653Z,16.70
2022-09-22T22:14:10.610Z,16.84
2022-09-22T22:16:43.169Z,16.89
2022-09-22T22:19:14.419Z,16.70
2022-09-22T22:21:44.536Z,16.83
2022-09-22T22:24:28.574Z,16.80
2022-09-22T22:27:01.106Z,16.87
2022-09-22T22:29:32.120Z,16.56
2022-09-22T22:32:00.690Z,16.79
2022-09-22T22:34:30.323Z,16.80
2022-09-22T22:37:00.624Z,16.81
2022-09-22T22:39:32.403Z,16.72
2022-09-22T22:42:00.771Z,16.70
2022-09-22T22:44:29.180Z,16.70
2022-09-22T22:46:58.436Z,16.72
2022-09-22T22:49:28.276Z,16.69
2022-09-22T22:51:57.291Z,16.67
2022-09-22T22:54:26.075Z,16.66
2022-09-22T22:56:56.929Z,16.57
2022-09-22T22:59:25.225Z,16.56
2022-09-22T23:01:56.526Z,16.53
2022-09-22T23:04:27.299Z,16.29
2022-09-22T23:06:58.374Z,16.46
2022-09-22T23:09:40.273Z,16.50
2022-09-22T23:12:10.654Z,16.27
2022-09-22T23:14:40.871Z,16.36
2022-09-22T23:17:09.601Z,16.44
2022-09-22T23:19:38.937Z,16.31
2022-09-22T23:22:08.059Z,16.41
2022-09-22T23:24:39.421Z,16.25
2022-09-22T23:27:13.264Z,16.52
2022-09-22T23:29:44.065Z,16.56
2022-09-22T23:32:12.854Z,16.47
2022-09-22T23:34:43.765Z,16.37
2022-09-22T23:37:13.436Z,16.38
2022-09-22T23:39:44.285Z,16.26
2022-09-22T23:42:16.304Z,16.45
2022-09-22T23:44:45.576Z,16.45
2022-09-22T23:47:18.045Z,16.45
2022-09-22T23:49:49.708Z,16.41
2022-09-22T23:52:18.621Z,16.48
2022-09-22T23:54:48.719Z,16.28
2022-09-22T23:57:19.135Z,16.41
2022-09-22T23:59:48.137Z,16.43
